Delta, CO

1:45 AM MDT on April 30, 2017 (GMT -0600)
Delta

Weather History for KAJZ - September, 2013

Change the Weather History Date:

Monday, September 2, 2013

  Actual Average (KMTJ) Record (KMTJ)
Temperature  
Mean Temperature 78 °F -  
Max Temperature 94 °F 80 °F 91 °F (2007)
Min Temperature 62 °F 50 °F 44 °F (2008)
Cooling Degree Days 13    
Growing Degree Days 28 (Base 50)    
Moisture  
Dew Point 48 °F    
Average Humidity 37    
Maximum Humidity 62    
Minimum Humidity 16    
Precipitation  
Precipitation 0.00 in - - ()
Sea Level Pressure  
Sea Level Pressure 30.16 in    
Wind  
Wind Speed 5 mph (ESE)    
Max Wind Speed 10 mph    
Max Gust Speed -    
Visibility 9 miles    
Events Thunderstorm    
Averages and records for this station are not official NWS values.
T = Trace of Precipitation, MM = Missing Value Source: NWS Daily Summary

Daily Weather History Graph

Daily Weather History Graph

Search for Another Location

Airport or City:

Trip Planner

Search our weather history database for the weather conditions in past years. The results will help you decide how hot, cold, wet, or windy it might be!

Date:

Astronomy

Sep. 02, 2013 Rise Set
Actual Time 6:42 AM MDT 7:40 PM MDT
Civil Twilight 6:15 AM MDT 8:07 PM MDT
Nautical Twilight 5:42 AM MDT 8:39 PM MDT
Astronomical Twilight 5:09 AM MDT 9:13 PM MDT
Moon 4:03 AM MDT (9/2) 5:55 PM MDT (9/2)
Length of Visible Light 13h 52m
Length of Day
12h 58m
Waning Crescent, 7% of the Moon is Illuminated
Sep 2
Waning Crescent
Sep 5
New
Sep 12
First Quarter
Sep 19
Full
Sep 26
Last Quarter

Hourly Weather History & Observations

Time (MDT) Temp. Dew Point Humidity Pressure Visibility Wind Dir Wind Speed Gust Speed Precip Events Conditions
12:15 AM 76.1 °F 49.6 °F 39% 30.16 in 10.0 mi NE 9.2 mph - N/A   Clear
12:35 AM 75.4 °F 49.8 °F 41% 30.16 in 10.0 mi ENE 9.2 mph - N/A   Clear
12:55 AM 74.5 °F 50.0 °F 42% 30.17 in 7.0 mi East 5.8 mph - N/A   Clear
1:15 AM 69.4 °F 54.7 °F 59% 30.18 in 10.0 mi ESE 5.8 mph - N/A   Scattered Clouds
1:35 AM 68.2 °F 54.7 °F 62% 30.18 in 7.0 mi NNW 3.5 mph - N/A   Scattered Clouds
1:55 AM 70.0 °F 53.2 °F 55% 30.19 in 7.0 mi SW 3.5 mph - N/A   Scattered Clouds
2:15 AM 72.5 °F 52.9 °F 50% 30.19 in 10.0 mi West 4.6 mph - N/A   Scattered Clouds
2:35 AM 69.8 °F 52.9 °F 55% 30.19 in 7.0 mi NW 5.8 mph - N/A   Clear
2:55 AM 69.3 °F 53.8 °F 58% 30.19 in 10.0 mi North 4.6 mph - N/A   Clear
3:15 AM 68.0 °F 52.3 °F 57% 30.19 in 5.0 mi NNE 5.8 mph - N/A   Clear
3:35 AM 68.2 °F 50.5 °F 53% 30.19 in 7.0 mi NE 3.5 mph - N/A   Clear
3:55 AM 70.7 °F 49.6 °F 47% 30.18 in 10.0 mi NNE 10.4 mph - N/A   Clear
4:15 AM 70.2 °F 49.1 °F 47% 30.18 in 10.0 mi NE 8.1 mph - N/A   Clear
4:35 AM 68.9 °F 49.1 °F 49% 30.19 in 10.0 mi NE 6.9 mph - N/A   Clear
4:55 AM 67.8 °F 49.8 °F 52% 30.19 in 10.0 mi East 5.8 mph - N/A   Clear
5:15 AM 66.6 °F 49.3 °F 54% 30.19 in 7.0 mi East 5.8 mph - N/A   Clear
5:35 AM 65.8 °F 49.1 °F 55% 30.19 in 10.0 mi ESE 4.6 mph - N/A   Clear
5:55 AM 64.9 °F 48.9 °F 56% 30.20 in 10.0 mi East 4.6 mph - N/A   Clear
6:15 AM 64.2 °F 49.3 °F 58% 30.21 in 10.0 mi Calm Calm - N/A   Clear
6:35 AM 63.1 °F 48.9 °F 60% 30.21 in 10.0 mi East 4.6 mph - N/A   Clear
6:55 AM 62.8 °F 49.1 °F 61% 30.22 in 7.0 mi NNE 10.4 mph - N/A   Clear
7:15 AM 63.9 °F 48.9 °F 58% 30.22 in 7.0 mi NE 8.1 mph - N/A   Clear
7:35 AM 67.1 °F 49.1 °F 52% 30.23 in 7.0 mi ENE 5.8 mph - N/A   Clear
7:55 AM 68.9 °F 49.1 °F 49% 30.23 in 7.0 mi ENE 4.6 mph - N/A   Clear
8:15 AM 71.2 °F 50.0 °F 47% 30.23 in 7.0 mi East 4.6 mph - N/A   Clear
8:35 AM 72.0 °F 50.0 °F 46% 30.24 in 10.0 mi ESE 4.6 mph - N/A   Clear
8:55 AM 72.5 °F 51.1 °F 47% 30.24 in 7.0 mi East 3.5 mph - N/A   Clear
9:15 AM 74.3 °F 50.4 °F 43% 30.25 in 10.0 mi SE 4.6 mph - N/A   Clear
9:35 AM 75.7 °F 50.2 °F 41% 30.25 in 7.0 mi Calm Calm - N/A   Clear
9:55 AM 76.6 °F 50.2 °F 39% 30.25 in 10.0 mi ESE 3.5 mph - N/A   Clear
10:15 AM 77.9 °F 50.7 °F 39% 30.25 in 10.0 mi Calm Calm - N/A   Clear
10:35 AM 79.0 °F 50.7 °F 37% 30.24 in 10.0 mi Calm Calm - N/A   Clear
10:55 AM 81.0 °F 48.9 °F 33% 30.23 in 7.0 mi SE 3.5 mph - N/A   Clear
11:15 AM 82.8 °F 48.9 °F 31% 30.23 in 10.0 mi East 3.5 mph - N/A   Clear
11:35 AM 83.8 °F 48.0 °F 29% 30.22 in 5.0 mi SE 3.5 mph - N/A   Clear
11:55 AM 85.1 °F 48.0 °F 27% 30.21 in 10.0 mi SSE 3.5 mph - N/A   Clear
12:15 PM 85.3 °F 47.1 °F 26% 30.19 in 7.0 mi ESE 4.6 mph - N/A   Clear
12:35 PM 87.1 °F 47.5 °F 25% 30.19 in 10.0 mi Calm Calm - N/A   Clear
12:55 PM 89.2 °F 47.7 °F 24% 30.18 in 7.0 mi SW 5.8 mph - N/A   Clear
1:15 PM 89.4 °F 47.3 °F 23% 30.17 in 7.0 mi SE 3.5 mph - N/A   Clear
1:35 PM 90.5 °F 48.0 °F 23% 30.16 in 7.0 mi SSE 3.5 mph - N/A   Clear
1:55 PM 90.7 °F 47.7 °F 23% 30.16 in 10.0 mi South 3.5 mph - N/A   Clear
2:15 PM 91.0 °F 47.5 °F 22% 30.15 in 10.0 mi SSE 5.8 mph - N/A   Clear
2:35 PM 92.7 °F 45.7 °F 20% 30.14 in 10.0 mi SW 4.6 mph - N/A   Clear
2:55 PM 92.8 °F 44.2 °F 19% 30.12 in 10.0 mi Calm Calm - N/A   Clear
3:15 PM 93.0 °F 45.1 °F 19% 30.11 in 10.0 mi SW 4.6 mph - N/A   Clear
3:35 PM 93.7 °F 45.0 °F 19% 30.10 in 7.0 mi Calm Calm - N/A   Clear
3:55 PM 93.0 °F 44.2 °F 19% 30.09 in 10.0 mi SW 3.5 mph - N/A   Clear
4:15 PM 94.1 °F 43.3 °F 17% 30.08 in 10.0 mi SSW 3.5 mph - N/A   Clear
4:35 PM 93.4 °F 41.9 °F 17% 30.08 in 10.0 mi Calm Calm - N/A   Clear
4:55 PM 94.8 °F 42.1 °F 16% 30.07 in 10.0 mi South 5.8 mph - N/A Thunderstorm Clear
5:15 PM 93.4 °F 42.6 °F 17% 30.07 in 10.0 mi West 5.8 mph - N/A   Clear
5:35 PM 93.6 °F 41.9 °F 17% 30.07 in 10.0 mi West 3.5 mph - N/A   Clear
5:55 PM 91.8 °F 43.5 °F 19% 30.06 in 10.0 mi WSW 8.1 mph - N/A   Clear
6:15 PM 92.3 °F 44.4 °F 19% 30.06 in 7.0 mi SW 3.5 mph - N/A   Clear
6:35 PM 92.3 °F 43.7 °F 19% 30.06 in 10.0 mi South 4.6 mph - N/A   Clear
6:55 PM 90.7 °F 45.9 °F 21% 30.06 in 10.0 mi South 5.8 mph - N/A   Clear
7:15 PM 89.8 °F 46.6 °F 22% 30.06 in 10.0 mi SW 3.5 mph - N/A   Clear
7:35 PM 89.2 °F 45.5 °F 22% 30.07 in 10.0 mi West 5.8 mph - N/A   Clear
7:55 PM 88.3 °F 45.0 °F 22% 30.07 in 7.0 mi West 3.5 mph - N/A   Clear
8:15 PM 85.1 °F 47.1 °F 27% 30.08 in 7.0 mi Calm Calm - N/A   Clear
8:35 PM 85.1 °F 46.8 °F 26% 30.08 in 7.0 mi SW 4.6 mph - N/A   Clear
8:55 PM 81.5 °F 47.5 °F 30% 30.10 in 7.0 mi ESE 4.6 mph - N/A   Clear
9:15 PM 79.7 °F 48.6 °F 33% 30.11 in 10.0 mi NE 6.9 mph - N/A   Clear
9:35 PM 78.1 °F 48.4 °F 35% 30.12 in 10.0 mi NE 5.8 mph - N/A   Clear
9:55 PM 78.6 °F 48.2 °F 34% 30.12 in 7.0 mi Calm Calm - N/A   Clear
10:15 PM 76.6 °F 49.6 °F 39% 30.12 in 10.0 mi NNW 3.5 mph - N/A   Clear
10:35 PM 76.3 °F 48.9 °F 38% 30.13 in 10.0 mi Calm Calm - N/A   Clear
10:55 PM 72.9 °F 49.3 °F 43% 30.13 in 10.0 mi ENE 5.8 mph - N/A   Clear
11:15 PM 73.8 °F 48.2 °F 40% 30.13 in 7.0 mi East 4.6 mph - N/A   Clear
11:35 PM 73.2 °F 47.3 °F 40% 30.14 in 10.0 mi ESE 3.5 mph - N/A   Clear
11:55 PM 72.1 °F 47.3 °F 41% 30.15 in 10.0 mi Calm Calm - N/A   Clear